Time;durP1;ratioP1;P1;durP2;ratioP2;P2;SDS_P1;SDS_P2;PMS_P1;PMS_P2;Temp;Humidity;BMP_temperature;BMP_pressure;BME280_temperature;BME280_humidity;BME280_pressure;Samples;Min_cycle;Max_cycle;Signal;HPM_P1;HPM_P2
2024/02/01 00:00:24;;;;;;;8.53;6.17;;;9.10;99.90;;;;;;4992667;28;20215;-85
2024/02/01 00:02:49;;;;;;;12.47;6.17;;;9.10;99.90;;;;;;4988678;28;20199;-85
2024/02/01 00:05:15;;;;;;;8.17;5.20;;;9.10;99.90;;;;;;4991922;28;20192;-86
2024/02/01 00:07:40;;;;;;;12.37;6.07;;;9.10;99.90;;;;;;4989471;28;20220;-86
2024/02/01 00:10:07;;;;;;;8.10;5.53;;;9.20;99.90;;;;;;4989342;28;20192;-86
2024/02/01 00:12:32;;;;;;;9.73;6.40;;;9.20;1.00;;;;;;4988782;28;20291;-86
2024/02/01 00:14:58;;;;;;;7.80;5.67;;;9.20;1.00;;;;;;4991108;28;20526;-85
2024/02/01 00:17:23;;;;;;;9.03;5.60;;;9.20;1.00;;;;;;4987095;28;20608;-84
2024/02/01 00:19:49;;;;;;;11.30;6.03;;;9.20;1.00;;;;;;4989236;28;20253;-86
2024/02/01 00:22:14;;;;;;;8.07;6.03;;;9.30;1.00;;;;;;4988793;28;20206;-86
2024/02/01 00:24:40;;;;;;;13.17;6.00;;;9.30;1.00;;;;;;4991376;28;20192;-86
2024/02/01 00:27:05;;;;;;;12.70;6.03;;;9.30;1.00;;;;;;4989979;28;20601;-86
2024/02/01 00:29:31;;;;;;;10.70;6.50;;;9.30;1.00;;;;;;4984482;28;20642;-86
2024/02/01 00:31:56;;;;;;;11.90;5.67;;;9.30;1.00;;;;;;4991072;28;20188;-86
2024/02/01 00:34:22;;;;;;;6.13;5.00;;;9.30;1.00;;;;;;4989600;28;20750;-85
2024/02/01 00:36:47;;;;;;;6.97;6.03;;;9.40;1.00;;;;;;4990485;28;20669;-86
2024/02/01 00:39:13;;;;;;;14.07;6.43;;;9.40;1.00;;;;;;4989494;28;20231;-85
2024/02/01 00:41:39;;;;;;;10.67;6.57;;;9.40;1.00;;;;;;4994510;28;20200;-84
2024/02/01 00:44:04;;;;;;;10.93;6.10;;;9.40;1.00;;;;;;4991607;28;20199;-85
2024/02/01 00:46:30;;;;;;;8.90;5.90;;;9.40;27.30;;;;;;4992240;28;20199;-85
2024/02/01 00:48:55;;;;;;;10.70;6.17;;;9.40;33.10;;;;;;4993338;28;20210;-86
2024/02/01 00:51:21;;;;;;;14.47;6.97;;;9.40;58.40;;;;;;4993517;28;20658;-85
2024/02/01 00:53:46;;;;;;;8.97;6.87;;;9.40;99.90;;;;;;4999030;28;20730;-86
2024/02/01 00:56:12;;;;;;;9.60;6.60;;;9.40;99.90;;;;;;4995506;28;20736;-86
2024/02/01 00:58:37;;;;;;;7.70;6.60;;;9.40;99.90;;;;;;4994193;28;20752;-86
2024/02/01 01:01:03;;;;;;;10.33;7.27;;;9.40;99.90;;;;;;4992904;28;20700;-86
2024/02/01 01:03:28;;;;;;;14.47;7.67;;;9.40;99.90;;;;;;4994604;28;20184;-86
2024/02/01 01:05:54;;;;;;;13.30;7.53;;;9.40;1.00;;;;;;4987667;28;20760;-86
2024/02/01 01:08:19;;;;;;;16.93;8.30;;;9.30;1.00;;;;;;4994542;28;20219;-86
2024/02/01 01:10:45;;;;;;;11.67;7.67;;;9.30;1.00;;;;;;4994894;28;20212;-87
2024/02/01 01:13:11;;;;;;;12.30;7.40;;;9.30;1.00;;;;;;4994099;28;20212;-87
2024/02/01 01:15:37;;;;;;;12.10;7.93;;;9.30;1.00;;;;;;4995490;28;20466;-84
2024/02/01 01:18:03;;;;;;;10.60;8.00;;;9.20;1.00;;;;;;4994970;28;20697;-83
2024/02/01 01:20:28;;;;;;;11.13;7.80;;;9.20;1.00;;;;;;4994404;28;20686;-86
2024/02/01 01:22:53;;;;;;;22.13;8.97;;;9.20;1.00;;;;;;4994258;28;20227;-86
2024/02/01 01:25:19;;;;;;;15.13;9.17;;;9.10;1.00;;;;;;4994740;28;20188;-86
2024/02/01 01:27:44;;;;;;;14.40;9.70;;;9.10;1.00;;;;;;4994039;28;20220;-86
2024/02/01 01:30:10;;;;;;;16.87;9.00;;;9.10;1.00;;;;;;4989115;28;20192;-87
2024/02/01 01:32:36;;;;;;;21.33;9.13;;;9.10;1.00;;;;;;4986181;28;20267;-86
2024/02/01 01:35:02;;;;;;;13.30;8.47;;;9.10;1.00;;;;;;4993060;28;20468;-86
2024/02/01 01:37:28;;;;;;;14.43;8.77;;;9.00;1.00;;;;;;4993630;28;20285;-86
2024/02/01 01:39:53;;;;;;;19.97;9.17;;;9.00;1.00;;;;;;4993158;28;20455;-86
2024/02/01 01:42:19;;;;;;;18.47;9.70;;;9.00;1.00;;;;;;4991878;28;20653;-86
2024/02/01 01:44:44;;;;;;;14.80;9.83;;;9.00;1.00;;;;;;4989323;28;20564;-86
2024/02/01 01:47:11;;;;;;;16.57;10.80;;;9.00;1.00;;;;;;4989443;28;20226;-85
2024/02/01 01:49:36;;;;;;;14.23;9.27;;;9.00;1.00;;;;;;4991908;28;20694;-86
2024/02/01 01:52:02;;;;;;;21.37;13.13;;;9.00;1.00;;;;;;4995623;28;20526;-85
2024/02/01 01:54:31;;;;;;;16.93;10.33;;;9.00;1.00;;;;;;4993542;28;20176;-86
2024/02/01 01:56:58;;;;;;;14.80;9.57;;;8.90;1.80;;;;;;4993347;28;20446;-86
2024/02/01 01:59:24;;;;;;;16.20;11.73;;;8.90;8.50;;;;;;4992427;28;20490;-88
2024/02/01 02:01:50;;;;;;;15.70;11.83;;;8.90;13.30;;;;;;4990045;28;21056;-86
2024/02/01 02:04:16;;;;;;;15.87;11.00;;;8.90;16.50;;;;;;4992854;28;20493;-88
2024/02/01 02:06:42;;;;;;;16.87;11.50;;;8.90;18.60;;;;;;4992574;28;20467;-86
2024/02/01 02:09:12;;;;;;;18.60;10.37;;;8.90;22.30;;;;;;4990338;28;20692;-86
2024/02/01 02:11:39;;;;;;;16.07;10.50;;;8.90;22.30;;;;;;4992580;28;20434;-85
2024/02/01 02:14:12;;;;;;;17.27;12.47;;;8.90;26.70;;;;;;4992601;28;20562;-86
2024/02/01 02:16:38;;;;;;;21.30;11.77;;;8.90;28.20;;;;;;4982523;28;20466;-85
2024/02/01 02:19:09;;;;;;;17.80;11.97;;;8.90;32.50;;;;;;4992646;28;20550;-85
2024/02/01 02:21:48;;;;;;;18.13;12.40;;;8.90;33.80;;;;;;4993010;28;20442;-84
2024/02/01 02:24:17;;;;;;;21.73;11.10;;;8.90;37.30;;;;;;4997025;28;20485;-87
2024/02/01 02:26:43;;;;;;;19.60;13.10;;;8.90;37.80;;;;;;4986964;28;20469;-86
2024/02/01 02:29:09;;;;;;;15.03;11.50;;;8.90;38.60;;;;;;4993996;28;20482;-86
2024/02/01 02:31:35;;;;;;;18.20;12.40;;;8.90;40.90;;;;;;4991982;28;20834;-85
2024/02/01 02:34:01;;;;;;;23.23;11.83;;;8.90;41.60;;;;;;4989779;28;20451;-85
2024/02/01 02:36:27;;;;;;;18.10;12.87;;;8.90;41.30;;;;;;4993338;28;20454;-84
2024/02/01 02:38:52;;;;;;;21.70;12.10;;;9.00;43.80;;;;;;4993965;28;20826;-86
2024/02/01 02:41:18;;;;;;;20.73;11.70;;;9.00;44.80;;;;;;4992731;28;20190;-86
2024/02/01 02:43:45;;;;;;;15.57;11.20;;;9.00;44.90;;;;;;4993449;28;20251;-87
2024/02/01 02:46:10;;;;;;;22.50;12.97;;;9.00;46.70;;;;;;4988134;28;20191;-86
2024/02/01 02:48:37;;;;;;;16.80;12.27;;;9.00;48.10;;;;;;4989572;28;20451;-85
2024/02/01 02:51:04;;;;;;;17.87;12.30;;;9.00;49.60;;;;;;4988739;28;20188;-87
2024/02/01 02:53:30;;;;;;;17.80;11.83;;;9.00;49.00;;;;;;4990779;28;21000;-87
2024/02/01 02:55:55;;;;;;;22.90;12.67;;;9.00;52.60;;;;;;4992408;28;20522;-86
2024/02/01 02:58:21;;;;;;;16.33;11.10;;;9.00;55.20;;;;;;4992469;28;20207;-86
2024/02/01 03:00:46;;;;;;;20.10;11.70;;;9.00;57.60;;;;;;4990928;28;20223;-87
2024/02/01 03:03:13;;;;;;;19.67;14.57;;;9.00;60.60;;;;;;4992389;28;20258;-84
2024/02/01 03:05:38;;;;;;;19.47;13.20;;;9.00;65.50;;;;;;4992589;28;20195;-85
2024/02/01 03:08:05;;;;;;;22.00;13.93;;;9.00;67.70;;;;;;4988564;28;20558;-86
2024/02/01 03:10:34;;;;;;;23.17;13.87;;;9.00;70.90;;;;;;4989145;28;20203;-84
2024/02/01 03:12:59;;;;;;;21.30;14.23;;;9.00;74.80;;;;;;4989093;28;20443;-87
2024/02/01 03:15:28;;;;;;;23.73;13.37;;;9.00;76.80;;;;;;4989613;28;20813;-86
2024/02/01 03:17:55;;;;;;;19.90;14.07;;;9.00;79.90;;;;;;4992052;28;20232;-86
2024/02/01 03:20:23;;;;;;;22.10;14.07;;;9.00;80.90;;;;;;4991822;28;20443;-88
2024/02/01 03:22:55;;;;;;;20.27;14.13;;;9.00;85.10;;;;;;4998768;28;20433;-86
2024/02/01 03:25:31;;;;;;;20.33;13.07;;;9.00;84.70;;;;;;4991462;28;20435;-86
2024/02/01 03:28:03;;;;;;;21.60;14.37;;;9.10;83.80;;;;;;4988097;28;20474;-86
2024/02/01 03:30:29;;;;;;;19.97;13.93;;;9.00;83.80;;;;;;4982319;28;20443;-85
2024/02/01 03:32:56;;;;;;;17.10;13.23;;;9.10;86.60;;;;;;4988906;28;20446;-84
2024/02/01 03:35:22;;;;;;;19.87;12.83;;;9.00;87.40;;;;;;4991592;28;20435;-84
2024/02/01 03:37:49;;;;;;;17.50;13.43;;;9.10;89.80;;;;;;4988751;28;20573;-86
2024/02/01 03:40:18;;;;;;;18.37;12.97;;;9.10;90.40;;;;;;4985673;28;20446;-86
2024/02/01 03:42:45;;;;;;;17.57;12.83;;;9.10;88.80;;;;;;4990544;28;20814;-86
2024/02/01 03:45:11;;;;;;;21.67;13.40;;;9.10;90.40;;;;;;4991817;28;20463;-85
2024/02/01 03:47:36;;;;;;;21.57;13.70;;;9.10;90.60;;;;;;4988227;28;20478;-84
2024/02/01 03:50:02;;;;;;;20.90;12.40;;;9.10;92.30;;;;;;4988048;28;21011;-86
2024/02/01 03:52:29;;;;;;;17.17;13.17;;;9.10;92.10;;;;;;4991245;28;20180;-86
2024/02/01 03:54:54;;;;;;;17.33;13.20;;;9.10;92.40;;;;;;4994451;28;20486;-85
2024/02/01 03:57:20;;;;;;;19.63;13.90;;;9.10;93.20;;;;;;4991241;28;20447;-86
2024/02/01 03:59:46;;;;;;;19.63;13.97;;;9.10;93.20;;;;;;4990674;28;20180;-86
2024/02/01 04:02:15;;;;;;;18.23;13.70;;;9.10;94.20;;;;;;4992007;28;20871;-87
2024/02/01 04:04:45;;;;;;;20.13;13.30;;;9.10;95.00;;;;;;4988873;28;20858;-86
2024/02/01 04:07:18;;;;;;;17.00;12.87;;;9.20;94.90;;;;;;4984947;28;20486;-86
2024/02/01 04:09:45;;;;;;;17.70;13.43;;;9.10;95.40;;;;;;4992265;28;20442;-87
2024/02/01 04:12:13;;;;;;;19.87;12.87;;;9.20;95.90;;;;;;4991195;28;20983;-86
2024/02/01 04:14:38;;;;;;;19.30;14.60;;;9.20;96.30;;;;;;4994358;28;20972;-86
2024/02/01 04:17:04;;;;;;;18.73;14.20;;;9.10;96.20;;;;;;4993157;28;20448;-85
2024/02/01 04:19:30;;;;;;;18.10;13.60;;;9.10;97.50;;;;;;4992026;28;20206;-85
2024/02/01 04:21:55;;;;;;;16.50;12.37;;;9.20;98.50;;;;;;4992885;28;20444;-86
2024/02/01 04:24:21;;;;;;;20.07;14.80;;;9.20;99.20;;;;;;4993286;28;20199;-86
2024/02/01 04:26:47;;;;;;;19.47;14.10;;;9.20;98.90;;;;;;4993659;28;20200;-85
2024/02/01 04:29:13;;;;;;;21.43;14.13;;;9.20;99.90;;;;;;4994419;28;20203;-86
2024/02/01 04:31:39;;;;;;;23.70;14.70;;;9.20;99.90;;;;;;4995709;28;20518;-87
2024/02/01 04:34:05;;;;;;;20.73;14.03;;;9.20;99.90;;;;;;4990780;28;21029;-86
2024/02/01 04:36:30;;;;;;;18.13;13.33;;;9.20;99.90;;;;;;4993767;28;20186;-86
2024/02/01 04:38:56;;;;;;;17.60;14.07;;;9.20;99.90;;;;;;4994730;28;20243;-86
2024/02/01 04:41:21;;;;;;;29.63;15.63;;;9.20;99.90;;;;;;4995093;28;20191;-86
2024/02/01 04:43:47;;;;;;;19.80;14.80;;;9.20;99.90;;;;;;4993233;28;20211;-86
2024/02/01 04:46:13;;;;;;;24.50;15.20;;;9.20;99.90;;;;;;4989666;28;20196;-86
2024/02/01 04:48:38;;;;;;;21.50;14.17;;;9.30;99.90;;;;;;4994660;28;21013;-86
2024/02/01 04:51:04;;;;;;;21.80;14.73;;;9.30;99.90;;;;;;4994815;28;20235;-86
2024/02/01 04:53:30;;;;;;;22.83;16.23;;;9.30;99.90;;;;;;4990589;28;20184;-84
2024/02/01 04:55:55;;;;;;;22.70;17.13;;;9.30;99.90;;;;;;4993745;28;20628;-85
2024/02/01 04:58:20;;;;;;;27.30;19.10;;;9.30;99.90;;;;;;4993221;28;20215;-86
2024/02/01 05:00:52;;;;;;;26.93;20.07;;;9.30;99.90;;;;;;4994827;28;20180;-86
2024/02/01 05:03:17;;;;;;;28.10;19.73;;;9.40;99.90;;;;;;4994677;28;20192;-85
2024/02/01 05:05:47;;;;;;;28.13;19.90;;;9.40;99.90;;;;;;4993808;28;20473;-86
2024/02/01 05:08:13;;;;;;;26.80;19.13;;;9.40;99.90;;;;;;4994823;28;20222;-87
2024/02/01 05:10:43;;;;;;;25.17;18.70;;;9.40;99.90;;;;;;4994300;28;20422;-86
2024/02/01 05:13:12;;;;;;;25.13;17.97;;;9.40;99.90;;;;;;5007216;28;20195;-86
2024/02/01 05:15:46;;;;;;;24.43;17.70;;;9.50;99.90;;;;;;4993706;28;20446;-85
2024/02/01 05:18:12;;;;;;;23.83;17.73;;;9.50;99.20;;;;;;4993972;28;20548;-86
2024/02/01 05:20:38;;;;;;;24.97;17.57;;;9.50;98.30;;;;;;4993286;28;20443;-85
2024/02/01 05:23:05;;;;;;;23.57;17.27;;;9.50;97.50;;;;;;4991751;28;20443;-85
2024/02/01 05:25:30;;;;;;;23.10;17.60;;;9.50;97.50;;;;;;4989133;28;20439;-86
2024/02/01 05:27:56;;;;;;;23.73;16.23;;;9.60;96.70;;;;;;4988213;28;20481;-87
2024/02/01 05:30:22;;;;;;;30.77;17.47;;;9.60;95.40;;;;;;4994648;28;20204;-86
2024/02/01 05:32:52;;;;;;;28.33;17.23;;;9.60;95.00;;;;;;4994390;28;20657;-86
2024/02/01 05:35:26;;;;;;;26.77;17.73;;;9.50;95.20;;;;;;4994906;28;20438;-86
2024/02/01 05:37:53;;;;;;;27.53;18.53;;;9.60;95.50;;;;;;4991734;28;20470;-86
2024/02/01 05:40:19;;;;;;;28.63;18.97;;;9.60;95.60;;;;;;5002754;28;20505;-88
2024/02/01 05:42:45;;;;;;;38.90;18.33;;;9.60;94.60;;;;;;5009145;28;20447;-86
2024/02/01 05:45:12;;;;;;;29.20;19.27;;;9.60;93.80;;;;;;4993437;28;20172;-86
2024/02/01 05:47:37;;;;;;;27.50;18.20;;;9.60;94.80;;;;;;4993824;28;20265;-86
2024/02/01 05:50:05;;;;;;;26.80;19.03;;;9.60;94.30;;;;;;4994058;28;20525;-86
2024/02/01 05:52:36;;;;;;;26.57;19.23;;;9.60;94.50;;;;;;4983946;28;20589;-86
2024/02/01 05:55:05;;;;;;;32.23;19.80;;;9.60;94.60;;;;;;4993116;28;20447;-85
2024/02/01 05:57:31;;;;;;;30.57;20.67;;;9.60;93.70;;;;;;4990873;28;20821;-86
2024/02/01 05:59:57;;;;;;;42.17;21.73;;;9.60;94.00;;;;;;4993182;28;20909;-86
2024/02/01 06:02:22;;;;;;;33.67;20.67;;;9.60;92.60;;;;;;4994482;28;20463;-86
2024/02/01 06:04:48;;;;;;;30.10;19.80;;;9.60;92.50;;;;;;4994781;28;20184;-87
2024/02/01 06:07:14;;;;;;;32.40;21.50;;;9.60;90.10;;;;;;4992167;28;20211;-84
2024/02/01 06:09:39;;;;;;;29.33;21.23;;;9.60;89.60;;;;;;4990072;28;20181;-85
2024/02/01 06:12:05;;;;;;;39.37;20.43;;;9.50;78.70;;;;;;4985952;28;20436;-86
2024/02/01 06:14:31;;;;;;;32.60;21.53;;;9.60;75.50;;;;;;4986179;28;20204;-84
2024/02/01 06:16:56;;;;;;;31.40;20.70;;;9.50;71.30;;;;;;4992610;28;20215;-85
2024/02/01 06:19:22;;;;;;;36.83;20.70;;;9.50;71.50;;;;;;4994964;28;20208;-86
2024/02/01 06:21:49;;;;;;;36.13;20.60;;;9.50;73.10;;;;;;4991574;28;20189;-85
2024/02/01 06:24:15;;;;;;;30.70;19.47;;;9.50;68.20;;;;;;4990497;28;20523;-86
2024/02/01 06:26:41;;;;;;;32.57;19.40;;;9.40;63.30;;;;;;4989425;28;20526;-83
2024/02/01 06:29:09;;;;;;;28.83;19.03;;;9.40;55.90;;;;;;4992724;28;20204;-84
2024/02/01 06:31:38;;;;;;;22.53;14.47;;;9.40;53.30;;;;;;4993783;28;20523;-83
2024/02/01 06:34:08;;;;;;;28.23;13.90;;;9.40;22.50;;;;;;4986386;28;20431;-85
2024/02/01 06:36:39;;;;;;;23.13;14.70;;;9.40;2.30;;;;;;4990334;28;21033;-84
2024/02/01 06:41:48;;;;;;;16.67;11.10;;;9.40;1.00;;;;;;4991451;28;20435;-85
2024/02/01 06:44:26;;;;;;;23.30;11.33;;;9.40;1.00;;;;;;4994444;28;20472;-85
2024/02/01 06:55:06;;;;;;;22.13;13.30;;;9.10;1.00;;;;;;4993965;28;20439;-84
2024/02/01 06:57:47;;;;;;;19.73;12.70;;;9.00;1.00;;;;;;4997185;28;20518;-86
2024/02/01 07:00:40;;;;;;;24.40;12.73;;;8.90;1.00;;;;;;4993556;28;20427;-86
2024/02/01 07:08:26;;;;;;;13.30;5.80;;;8.60;1.00;;;;;;4992781;28;20466;-85
2024/02/01 07:11:14;;;;;;;16.37;4.83;;;8.60;1.00;;;;;;4981175;28;20565;-85
2024/02/01 07:16:35;;;;;;;8.13;5.13;;;8.50;99.90;;;;;;4988085;28;20416;-85
2024/02/01 07:24:39;;;;;;;6.57;3.53;;;8.40;99.90;;;;;;4992401;28;20517;-86
2024/02/01 07:59:58;;;;;;;14.93;3.40;;;10.80;1.00;;;;;;4991140;28;20438;-85
2024/02/01 08:02:49;;;;;;;17.53;3.30;;;12.00;1.00;;;;;;4983613;28;20448;-84
2024/02/01 08:08:04;;;;;;;14.67;3.40;;;13.20;1.00;;;;;;4989009;28;21116;-86
2024/02/01 08:10:29;;;;;;;12.23;3.33;;;12.50;1.00;;;;;;4980935;28;20438;-83
2024/02/01 08:12:55;;;;;;;13.20;3.60;;;11.90;1.00;;;;;;4997807;28;20515;-86
2024/02/01 08:15:21;;;;;;;17.87;3.80;;;12.20;38.10;;;;;;4985549;28;20180;-86
2024/02/01 08:17:51;;;;;;;12.93;3.17;;;13.70;1.00;;;;;;4982055;28;20594;-86
2024/02/01 08:20:19;;;;;;;15.33;3.67;;;15.10;1.00;;;;;;4987225;28;20442;-85
2024/02/01 08:22:44;;;;;;;12.53;3.73;;;16.30;1.00;;;;;;4991161;28;20430;-85
2024/02/01 08:25:11;;;;;;;20.90;4.43;;;17.10;1.00;;;;;;4990365;28;20811;-85
2024/02/01 08:27:37;;;;;;;11.33;3.43;;;18.00;99.90;;;;;;4989782;28;20280;-86
2024/02/01 08:30:12;;;;;;;10.27;3.37;;;18.70;99.90;;;;;;4989823;28;20446;-87
2024/02/01 08:32:39;;;;;;;11.63;3.37;;;18.60;99.90;;;;;;4988342;28;20513;-87
2024/02/01 08:35:09;;;;;;;13.97;3.87;;;18.20;99.90;;;;;;4990913;28;20419;-87
2024/02/01 08:37:34;;;;;;;12.07;3.93;;;18.70;99.90;;;;;;5003624;28;20506;-86
2024/02/01 08:40:02;;;;;;;12.70;3.70;;;19.40;99.90;;;;;;4987078;28;20432;-86
2024/02/01 08:42:29;;;;;;;12.77;4.50;;;20.10;99.90;;;;;;4987659;28;20183;-87
2024/02/01 08:44:55;;;;;;;12.03;3.60;;;20.70;99.90;;;;;;4990610;28;20927;-86
2024/02/01 08:47:23;;;;;;;18.53;4.27;;;21.60;99.90;;;;;;4989744;28;20470;-86
2024/02/01 08:49:52;;;;;;;14.60;3.80;;;22.30;99.90;;;;;;4989011;28;20435;-87
2024/02/01 08:52:17;;;;;;;12.07;3.73;;;22.90;99.90;;;;;;4986830;28;20526;-86
2024/02/01 08:54:43;;;;;;;9.67;3.30;;;23.40;99.90;;;;;;4987909;28;20524;-87
2024/02/01 08:57:13;;;;;;;10.73;3.33;;;23.90;99.90;;;;;;4985201;28;20252;-87
2024/02/01 08:59:40;;;;;;;14.93;3.80;;;24.40;99.90;;;;;;4991201;28;20213;-86
2024/02/01 09:02:14;;;;;;;13.13;4.10;;;24.70;99.90;;;;;;4987876;28;20566;-87
2024/02/01 09:04:41;;;;;;;14.00;3.80;;;25.20;99.90;;;;;;4994774;28;20419;-86
2024/02/01 09:07:06;;;;;;;17.60;4.20;;;25.40;99.90;;;;;;4992711;28;20608;-87
2024/02/01 09:09:33;;;;;;;11.50;3.50;;;25.40;99.90;;;;;;4994383;28;20533;-88
2024/02/01 09:11:59;;;;;;;8.60;3.53;;;25.70;99.90;;;;;;4994678;28;20210;-86
2024/02/01 09:14:24;;;;;;;13.83;3.40;;;25.60;99.90;;;;;;4992611;28;20442;-88
2024/02/01 09:16:52;;;;;;;12.00;3.90;;;25.90;99.90;;;;;;4991858;28;20473;-88
2024/02/01 09:19:18;;;;;;;20.60;4.40;;;25.20;99.90;;;;;;4993541;28;20548;-88
2024/02/01 09:21:45;;;;;;;13.43;4.20;;;25.40;99.90;;;;;;4993840;28;20448;-89
2024/02/01 09:24:11;;;;;;;13.43;3.70;;;25.60;99.90;;;;;;4992793;28;20231;-88
2024/02/01 09:26:36;;;;;;;18.20;4.10;;;25.70;99.90;;;;;;4987570;28;20461;-88
2024/02/01 09:29:11;;;;;;;15.70;4.10;;;26.00;99.90;;;;;;4994108;28;20234;-88
2024/02/01 09:31:39;;;;;;;20.50;4.27;;;26.40;99.90;;;;;;4988020;28;20319;-87
2024/02/01 09:34:08;;;;;;;11.03;3.80;;;26.70;99.90;;;;;;4988546;28;20790;-86
2024/02/01 09:36:37;;;;;;;16.77;4.50;;;27.20;99.90;;;;;;4992264;28;20480;-88
2024/02/01 09:39:03;;;;;;;18.07;4.30;;;27.20;99.90;;;;;;4993427;28;20458;-88
2024/02/01 09:41:30;;;;;;;11.63;4.00;;;27.20;99.90;;;;;;4993205;28;20461;-89
2024/02/01 09:43:56;;;;;;;10.97;3.57;;;26.90;99.90;;;;;;4991765;28;20229;-87
2024/02/01 09:46:22;;;;;;;18.70;4.50;;;27.20;99.90;;;;;;5008817;28;20425;-87
2024/02/01 09:48:49;;;;;;;14.13;4.60;;;26.70;99.90;;;;;;4992942;28;20193;-87
2024/02/01 09:51:20;;;;;;;12.33;4.20;;;26.30;99.90;;;;;;4992719;28;20438;-87
2024/02/01 09:53:47;;;;;;;14.53;4.13;;;25.80;99.90;;;;;;4990764;28;20462;-87
2024/02/01 09:56:12;;;;;;;20.47;5.20;;;25.30;99.90;;;;;;4991333;28;20433;-87
2024/02/01 09:58:39;;;;;;;24.67;4.10;;;24.70;99.90;;;;;;4993890;28;20540;-89
2024/02/01 10:01:09;;;;;;;16.63;4.93;;;23.80;99.90;;;;;;4988498;28;20200;-87
2024/02/01 10:03:34;;;;;;;19.20;4.70;;;22.60;99.90;;;;;;4983642;28;20443;-87
2024/02/01 10:06:04;;;;;;;17.27;4.20;;;21.30;99.90;;;;;;4992032;28;20501;-87
2024/02/01 10:08:33;;;;;;;16.83;4.30;;;20.10;99.90;;;;;;4989274;28;20192;-87
2024/02/01 10:11:01;;;;;;;21.70;4.00;;;18.80;99.90;;;;;;4987618;28;20476;-86
2024/02/01 10:13:32;;;;;;;18.87;3.87;;;17.70;99.90;;;;;;4985128;28;20962;-87
2024/02/01 10:15:59;;;;;;;20.63;4.00;;;16.90;99.90;;;;;;4984400;28;20598;-87
2024/02/01 10:18:25;;;;;;;14.47;4.30;;;16.00;99.90;;;;;;4989530;28;20557;-86
2024/02/01 10:20:53;;;;;;;15.43;4.17;;;15.30;99.90;;;;;;4986202;28;21451;-85
2024/02/01 10:23:19;;;;;;;17.80;4.03;;;14.80;99.90;;;;;;4985429;28;20556;-86
2024/02/01 10:25:53;;;;;;;23.63;5.33;;;14.50;99.90;;;;;;4985411;28;20470;-86
2024/02/01 10:28:21;;;;;;;18.17;3.90;;;14.40;99.90;;;;;;4988482;28;20485;-86
2024/02/01 10:30:48;;;;;;;18.50;4.70;;;14.20;99.90;;;;;;4986596;28;20436;-86
2024/02/01 10:33:25;;;;;;;17.73;4.17;;;14.20;99.90;;;;;;4986095;28;20497;-86
2024/02/01 10:35:52;;;;;;;20.20;4.33;;;14.00;99.90;;;;;;4989872;28;20519;-86
2024/02/01 10:38:25;;;;;;;14.47;3.97;;;13.80;99.90;;;;;;4987907;28;20518;-86
2024/02/01 10:40:52;;;;;;;22.20;4.87;;;13.60;99.90;;;;;;4978794;28;20467;-85
2024/02/01 10:43:20;;;;;;;14.63;4.37;;;13.40;99.90;;;;;;5003036;28;20791;-86
2024/02/01 10:45:50;;;;;;;20.87;4.77;;;13.20;99.90;;;;;;4986494;28;20439;-86
2024/02/01 10:48:18;;;;;;;18.33;4.50;;;13.10;99.90;;;;;;4988923;28;20450;-85
2024/02/01 10:50:44;;;;;;;14.53;3.90;;;13.20;99.90;;;;;;4989436;28;20457;-86
2024/02/01 10:53:11;;;;;;;18.33;4.27;;;13.10;99.90;;;;;;4986381;28;20461;-85
2024/02/01 10:55:40;;;;;;;13.57;4.40;;;13.00;99.90;;;;;;4990030;28;20454;-86
2024/02/01 10:58:12;;;;;;;19.70;3.93;;;13.00;99.90;;;;;;4981898;28;20562;-86
2024/02/01 11:00:42;;;;;;;16.73;4.27;;;13.30;99.90;;;;;;4977940;28;20844;-86
2024/02/01 11:03:11;;;;;;;21.10;3.80;;;13.50;99.90;;;;;;4986516;28;21025;-86
2024/02/01 11:05:37;;;;;;;13.33;4.30;;;13.70;99.90;;;;;;4976875;28;20813;-86
2024/02/01 11:08:02;;;;;;;15.63;4.10;;;13.90;99.90;;;;;;4987025;28;20463;-85
2024/02/01 11:10:31;;;;;;;16.40;4.63;;;14.10;99.90;;;;;;4984940;28;20491;-87
2024/02/01 11:12:57;;;;;;;18.60;4.50;;;14.40;99.90;;;;;;4990072;28;20533;-86
2024/02/01 11:15:24;;;;;;;19.13;3.83;;;14.50;99.90;;;;;;4987663;28;20848;-86
2024/02/01 11:17:50;;;;;;;21.83;3.70;;;14.80;99.90;;;;;;4977447;28;20506;-86
2024/02/01 11:20:24;;;;;;;18.97;3.73;;;15.60;99.90;;;;;;4987589;28;20545;-86
2024/02/01 11:22:58;;;;;;;11.20;3.10;;;16.60;99.90;;;;;;4979008;28;20189;-87
2024/02/01 11:25:33;;;;;;;12.50;3.60;;;17.50;99.90;;;;;;4985812;28;20447;-87
2024/02/01 11:28:02;;;;;;;14.67;4.50;;;18.30;99.90;;;;;;4987280;28;20545;-88
2024/02/01 11:30:33;;;;;;;12.40;3.57;;;19.00;99.90;;;;;;4990622;28;20443;-89
2024/02/01 11:32:59;;;;;;;13.70;4.03;;;19.60;99.90;;;;;;4988052;28;20449;-87
2024/02/01 11:35:27;;;;;;;23.73;4.27;;;19.00;99.90;;;;;;4987515;28;20428;-88
2024/02/01 11:38:04;;;;;;;18.57;4.83;;;18.60;99.90;;;;;;4988159;28;20219;-87
2024/02/01 11:40:30;;;;;;;12.27;3.10;;;19.10;99.90;;;;;;4983981;28;20442;-87
2024/02/01 11:42:59;;;;;;;14.10;4.50;;;19.50;99.90;;;;;;4985606;28;20832;-87
2024/02/01 11:45:28;;;;;;;14.20;3.53;;;19.40;99.90;;;;;;4986086;28;20259;-87
2024/02/01 11:47:54;;;;;;;12.87;3.70;;;19.00;99.90;;;;;;4988339;28;21050;-86
2024/02/01 11:50:23;;;;;;;12.40;4.30;;;18.80;99.90;;;;;;4989100;28;20485;-87
2024/02/01 11:53:09;;;;;;;16.50;4.00;;;19.20;99.90;;;;;;4989003;28;20184;-88
2024/02/01 11:55:35;;;;;;;15.97;4.00;;;19.30;99.90;;;;;;5001601;28;20439;-87
2024/02/01 11:58:01;;;;;;;14.53;4.27;;;18.50;99.90;;;;;;5002510;28;20482;-88
2024/02/01 12:00:27;;;;;;;13.47;3.40;;;18.50;99.90;;;;;;4986242;28;20439;-86
2024/02/01 12:02:53;;;;;;;15.27;4.30;;;18.80;99.90;;;;;;4988927;28;20435;-87
2024/02/01 12:05:20;;;;;;;15.83;3.27;;;19.40;99.90;;;;;;4982766;28;20940;-88
2024/02/01 12:07:49;;;;;;;15.63;3.60;;;19.80;99.90;;;;;;4982799;28;20200;-87
2024/02/01 12:10:16;;;;;;;13.63;4.20;;;20.40;99.90;;;;;;4987645;28;20458;-88
2024/02/01 12:12:46;;;;;;;16.87;3.83;;;20.90;99.90;;;;;;4984285;28;20443;-87
2024/02/01 12:15:21;;;;;;;13.30;3.90;;;21.50;99.90;;;;;;4986360;28;20444;-87
2024/02/01 12:17:46;;;;;;;17.40;4.40;;;21.80;99.90;;;;;;4989079;28;21004;-88
2024/02/01 12:20:20;;;;;;;15.80;4.27;;;22.30;99.90;;;;;;4981732;28;20437;-88
2024/02/01 12:22:48;;;;;;;19.57;4.87;;;22.50;99.90;;;;;;4973587;28;20401;-87
2024/02/01 12:25:19;;;;;;;13.63;3.40;;;22.80;99.90;;;;;;4988642;28;20435;-87
2024/02/01 12:27:45;;;;;;;16.93;4.87;;;21.10;99.90;;;;;;4988249;28;20458;-86
2024/02/01 12:30:14;;;;;;;22.20;5.43;;;19.50;99.90;;;;;;4984983;28;20458;-87
2024/02/01 12:32:45;;;;;;;20.77;4.13;;;18.50;99.90;;;;;;4984519;28;20444;-87
2024/02/01 12:35:17;;;;;;;16.80;3.63;;;18.50;99.90;;;;;;4983874;28;20454;-87
2024/02/01 12:37:43;;;;;;;13.60;3.90;;;18.10;99.90;;;;;;4985222;28;20514;-87
2024/02/01 12:40:18;;;;;;;19.73;4.23;;;17.40;99.90;;;;;;4989955;28;20451;-86
2024/02/01 12:42:48;;;;;;;19.17;3.67;;;17.40;99.90;;;;;;4985646;28;20187;-86
2024/02/01 12:45:20;;;;;;;11.80;4.23;;;17.40;99.90;;;;;;4977799;28;20451;-86
2024/02/01 12:47:53;;;;;;;13.30;4.23;;;17.60;99.90;;;;;;4979242;28;20467;-86
2024/02/01 12:50:20;;;;;;;11.87;3.70;;;18.50;99.90;;;;;;4979088;28;20439;-87
2024/02/01 12:52:46;;;;;;;16.40;3.87;;;19.30;99.90;;;;;;4995753;28;20455;-87
2024/02/01 12:55:12;;;;;;;13.30;4.10;;;19.80;99.90;;;;;;4986898;28;20501;-86
2024/02/01 12:57:39;;;;;;;12.60;3.87;;;20.30;99.90;;;;;;4980207;28;20478;-86
2024/02/01 13:00:06;;;;;;;16.80;4.90;;;20.30;99.90;;;;;;4985292;28;20513;-86
2024/02/01 13:02:32;;;;;;;16.20;4.43;;;19.50;99.90;;;;;;4983280;28;20443;-86
2024/02/01 13:04:58;;;;;;;16.93;4.10;;;19.50;99.90;;;;;;4984966;28;20489;-87
2024/02/01 13:07:24;;;;;;;12.57;4.67;;;19.40;99.90;;;;;;4983059;28;20451;-86
2024/02/01 13:09:49;;;;;;;14.50;4.13;;;19.10;99.90;;;;;;4983936;28;20877;-87
2024/02/01 13:12:24;;;;;;;14.57;3.77;;;18.80;99.90;;;;;;4981832;28;20192;-86
2024/02/01 13:15:05;;;;;;;12.50;3.00;;;18.00;99.90;;;;;;4977036;28;20192;-86
2024/02/01 13:17:31;;;;;;;18.53;4.90;;;17.40;99.90;;;;;;4979813;28;20528;-86
2024/02/01 13:19:57;;;;;;;17.50;3.80;;;17.50;99.90;;;;;;4979325;28;20521;-85
2024/02/01 13:22:25;;;;;;;11.60;3.33;;;17.50;99.90;;;;;;4980959;28;20505;-85
2024/02/01 13:24:51;;;;;;;20.00;4.07;;;17.60;99.90;;;;;;4975358;28;20458;-85
2024/02/01 13:27:17;;;;;;;11.93;3.23;;;17.70;99.90;;;;;;4995908;28;20454;-86
2024/02/01 13:29:45;;;;;;;12.20;3.63;;;18.00;99.90;;;;;;4975721;28;20456;-86
2024/02/01 13:32:12;;;;;;;20.83;4.10;;;18.20;99.90;;;;;;4978234;28;20198;-86
2024/02/01 13:34:39;;;;;;;15.80;4.20;;;18.50;99.90;;;;;;4975022;28;20444;-86
2024/02/01 13:37:09;;;;;;;15.03;3.83;;;18.60;99.90;;;;;;4974165;28;20471;-86
2024/02/01 13:39:35;;;;;;;14.80;4.20;;;18.40;99.90;;;;;;4983177;28;20470;-86
2024/02/01 13:42:04;;;;;;;12.73;3.83;;;18.60;99.90;;;;;;4977833;28;20895;-87